Time;durP1;ratioP1;P1;durP2;ratioP2;P2;SDS_P1;SDS_P2;PMS_P1;PMS_P2;Temp;Humidity;BMP_temperature;BMP_pressure;BME280_temperature;BME280_humidity;BME280_pressure;Samples;Min_cycle;Max_cycle;Signal;HPM_P1;HPM_P2
2024/01/02 04:26:39;;;;;;;0.82;0.55;;;8.20;99.90;;;;;;6218468;23;20064;-79
2024/01/02 04:29:44;;;;;;;1.10;0.80;;;8.20;99.90;;;;;;6200629;23;20001;-80
2024/01/02 04:36:15;;;;;;;1.85;0.80;;;8.20;99.90;;;;;;6193379;23;20012;-80
2024/01/02 04:39:05;;;;;;;1.30;0.75;;;8.20;99.90;;;;;;6167000;23;20092;-80
2024/01/02 04:41:36;;;;;;;0.60;0.60;;;8.30;99.90;;;;;;6186201;23;20004;-79
2024/01/02 04:44:02;;;;;;;2.08;1.02;;;8.20;99.90;;;;;;6161425;23;20097;-81
2024/01/02 04:46:37;;;;;;;1.25;0.75;;;8.20;99.90;;;;;;6165773;23;19993;-79
2024/01/02 04:49:09;;;;;;;2.45;0.90;;;8.30;99.90;;;;;;6179263;23;20009;-79
2024/01/02 04:51:41;;;;;;;1.98;0.68;;;8.40;99.90;;;;;;6175071;23;20001;-80
2024/01/02 04:54:17;;;;;;;;;;;8.70;99.90;;;;;;6178037;23;20033;-79
2024/01/02 04:57:20;;;;;;;1.67;0.90;;;8.40;99.90;;;;;;6206253;23;20120;-80
2024/01/02 06:01:27;;;;;;;1.30;1.10;;;8.50;99.90;;;;;;6172817;23;20029;-80
2024/01/02 06:04:25;;;;;;;3.53;1.23;;;8.50;99.90;;;;;;6167850;23;20061;-80
2024/01/02 06:07:05;;;;;;;1.70;1.10;;;8.60;99.90;;;;;;6140591;23;20009;-80
2024/01/02 06:10:00;;;;;;;2.17;1.20;;;8.60;99.90;;;;;;6147656;23;20013;-81
2024/01/02 06:16:27;;;;;;;3.60;1.30;;;8.60;99.90;;;;;;6083120;23;20010;-81
2024/01/02 08:12:47;;;;;;;3.42;0.98;;;;;;;;;;6214631;23;20036;-80
2024/01/02 08:15:16;;;;;;;0.98;0.70;;;8.80;99.90;;;;;;6214087;23;20001;-78
2024/01/02 08:17:43;;;;;;;2.13;1.20;;;;;;;;;;6195505;23;19997;-79
2024/01/02 08:20:16;;;;;;;1.15;0.88;;;8.80;99.90;;;;;;6208160;23;20024;-80
2024/01/02 08:22:45;;;;;;;2.75;1.17;;;9.10;99.90;;;;;;6181617;23;20017;-80
2024/01/02 08:25:15;;;;;;;1.25;0.70;;;8.70;99.90;;;;;;6206955;23;20083;-78
2024/01/02 08:27:41;;;;;;;1.27;0.85;;;;;;;;;;6159783;23;20020;-79
2024/01/02 08:30:14;;;;;;;1.60;1.00;;;8.80;99.90;;;;;;6189308;23;20001;-79
2024/01/02 08:32:41;;;;;;;1.63;0.90;;;;;;;;;;6188769;23;20005;-79
2024/01/02 08:35:10;;;;;;;3.72;1.73;;;8.80;99.90;;;;;;6212471;23;20013;-80
2024/01/02 08:37:37;;;;;;;1.65;0.60;;;8.90;99.90;;;;;;6187501;23;20048;-79
2024/01/02 08:40:06;;;;;;;0.82;0.70;;;8.90;99.90;;;;;;6188225;23;20005;-79
2024/01/02 08:42:33;;;;;;;1.13;0.70;;;8.20;99.90;;;;;;6188684;23;20002;-79
2024/01/02 08:44:59;;;;;;;3.00;0.90;;;;;;;;;;6191419;23;20001;-80
2024/01/02 08:47:29;;;;;;;1.20;0.70;;;8.80;99.90;;;;;;6198597;23;20077;-79
2024/01/02 08:50:33;;;;;;;2.25;0.98;;;8.90;99.90;;;;;;6206516;23;20446;-79
2024/01/02 08:53:05;;;;;;;1.88;1.25;;;8.80;99.90;;;;;;6192718;23;20009;-81
2024/01/02 08:55:36;;;;;;;1.92;1.30;;;8.90;99.90;;;;;;6194272;23;20084;-80
2024/01/02 08:58:05;;;;;;;1.50;0.90;;;8.80;99.90;;;;;;6191024;23;20010;-80
2024/01/02 09:00:32;;;;;;;3.03;1.00;;;8.70;99.90;;;;;;6190618;23;20009;-79
2024/01/02 09:03:22;;;;;;;1.60;0.98;;;6.10;99.90;;;;;;6188283;23;20033;-80
2024/01/02 09:05:50;;;;;;;1.65;0.93;;;;;;;;;;6197552;23;20001;-81
2024/01/02 09:08:16;;;;;;;1.30;0.80;;;8.90;99.90;;;;;;6220855;23;20001;-81
2024/01/02 09:10:43;;;;;;;1.60;0.90;;;;;;;;;;6194614;23;20063;-81
2024/01/02 09:13:29;;;;;;;2.75;0.90;;;9.60;99.90;;;;;;6195562;23;20013;-81
2024/01/02 09:15:55;;;;;;;2.05;1.10;;;;;;;;;;6171508;23;20009;-82
2024/01/02 09:18:24;;;;;;;1.20;1.10;;;;;;;;;;6230965;23;20008;-82
2024/01/02 09:21:10;;;;;;;1.60;1.00;;;8.80;99.90;;;;;;6232017;23;19993;-83
2024/01/02 09:23:44;;;;;;;2.05;1.10;;;9.00;99.90;;;;;;6209593;22;20005;-82
2024/01/02 09:26:20;;;;;;;1.83;0.90;;;8.80;99.90;;;;;;6210703;23;20073;-81
2024/01/02 09:29:24;;;;;;;2.13;1.48;;;9.90;99.90;;;;;;6207554;23;20036;-82
2024/01/02 09:31:55;;;;;;;2.00;1.25;;;;;;;;;;6206568;23;20009;-82
2024/01/02 09:34:25;;;;;;;3.10;1.45;;;;;;;;;;6204217;23;20424;-81
2024/01/02 09:36:54;;;;;;;2.72;1.00;;;8.90;99.90;;;;;;6203151;23;19997;-80
2024/01/02 09:39:23;;;;;;;1.75;0.90;;;8.80;99.90;;;;;;6203328;23;20020;-81
2024/01/02 09:42:09;;;;;;;2.63;1.00;;;8.90;99.90;;;;;;6202434;23;20017;-80
2024/01/02 09:44:57;;;;;;;4.43;3.40;;;8.80;99.90;;;;;;6200902;23;20032;-82
2024/01/02 09:48:14;;;;;;;3.13;1.23;;;8.80;99.90;;;;;;6199614;23;20002;-81
2024/01/02 09:50:54;;;;;;;2.78;1.30;;;8.70;99.90;;;;;;6187063;23;20066;-82
2024/01/02 09:54:20;;;;;;;1.83;1.20;;;8.80;99.90;;;;;;6187742;22;20044;-83
2024/01/02 09:56:46;;;;;;;1.67;1.10;;;;;;;;;;6085271;23;20596;-82
2024/01/02 09:59:35;;;;;;;2.67;1.10;;;8.80;99.90;;;;;;6091215;23;19994;-82
2024/01/02 10:02:41;;;;;;;2.75;1.20;;;8.90;99.90;;;;;;6188118;23;20057;-82
2024/01/02 10:05:32;;;;;;;1.52;1.13;;;8.80;99.90;;;;;;6210262;23;19997;-80
2024/01/02 10:08:20;;;;;;;2.13;1.20;;;8.70;99.90;;;;;;6212850;23;20017;-80
2024/01/02 10:11:16;;;;;;;3.97;1.20;;;8.80;99.90;;;;;;6213292;23;20004;-81
2024/01/02 10:14:00;;;;;;;1.52;1.05;;;9.00;99.90;;;;;;6212944;23;20021;-82
2024/01/02 10:16:42;;;;;;;1.90;1.10;;;8.70;99.90;;;;;;6213844;23;20052;-81
2024/01/02 10:19:59;;;;;;;1.40;1.00;;;8.80;99.90;;;;;;6214002;23;20064;-82
2024/01/02 10:22:53;;;;;;;1.98;1.20;;;8.80;99.90;;;;;;6235775;23;20027;-81
2024/01/02 10:26:03;;;;;;;1.17;1.00;;;8.70;99.90;;;;;;6202706;23;20031;-79
2024/01/02 10:40:09;;;;;;;1.15;0.90;;;9.00;99.90;;;;;;6208841;23;20071;-82
2024/01/02 10:47:02;;;;;;;2.13;0.90;;;8.90;99.90;;;;;;6196211;23;20008;-81
2024/01/02 11:00:45;;;;;;;1.70;1.00;;;9.00;99.90;;;;;;6056139;23;20035;-80
2024/01/02 11:04:07;;;;;;;0.82;0.70;;;9.00;99.90;;;;;;5935725;24;20020;-80
2024/01/02 11:06:59;;;;;;;1.45;0.98;;;9.00;99.90;;;;;;6093102;23;20026;-81
2024/01/02 11:15:46;;;;;;;1.92;1.00;;;;;;;;;;6136885;23;20060;-82
2024/01/02 11:22:19;;;;;;;1.25;0.90;;;9.20;99.90;;;;;;6133761;23;20112;-81
2024/01/02 11:25:41;;;;;;;1.45;0.80;;;9.30;99.90;;;;;;6135805;23;20013;-82
2024/01/02 11:40:01;;;;;;;1.13;0.90;;;9.20;99.90;;;;;;6212983;22;20025;-82
2024/01/02 11:49:56;;;;;;;3.15;1.17;;;9.10;99.90;;;;;;6226357;23;20054;-81
2024/01/02 11:53:29;;;;;;;1.70;1.20;;;9.10;99.90;;;;;;6228178;23;20004;-81
2024/01/02 12:00:32;;;;;;;1.60;1.00;;;9.10;99.90;;;;;;6143078;23;20020;-81
2024/01/02 12:03:37;;;;;;;0.80;0.80;;;9.00;99.90;;;;;;6139303;23;20001;-80
2024/01/02 12:06:20;;;;;;;1.27;1.00;;;9.20;99.90;;;;;;6171063;23;20000;-80
2024/01/02 12:09:18;;;;;;;1.15;0.90;;;9.20;99.90;;;;;;6198273;23;20091;-80
2024/01/02 12:12:35;;;;;;;1.55;0.90;;;9.10;99.90;;;;;;6221967;23;20000;-81
2024/01/02 12:15:20;;;;;;;1.42;1.10;;;9.10;99.90;;;;;;6191567;23;20005;-81
2024/01/02 12:18:24;;;;;;;1.73;1.10;;;9.60;99.90;;;;;;6217020;23;20008;-80
2024/01/02 12:21:28;;;;;;;1.70;1.00;;;9.20;99.90;;;;;;6223619;23;20004;-80
2024/01/02 12:24:14;;;;;;;0.80;0.80;;;9.20;99.90;;;;;;6187849;23;20001;-79
2024/01/02 12:27:35;;;;;;;1.02;0.80;;;9.30;99.90;;;;;;6179576;23;20020;-80
2024/01/02 12:31:01;;;;;;;2.55;0.90;;;9.30;99.90;;;;;;6231867;23;20001;-81
2024/01/02 12:33:48;;;;;;;1.52;0.80;;;9.20;99.90;;;;;;6224244;23;20007;-80
2024/01/02 12:36:45;;;;;;;1.10;0.70;;;9.30;99.90;;;;;;6196773;23;20001;-81
2024/01/02 12:39:51;;;;;;;2.38;0.90;;;;;;;;;;6220319;23;20027;-81
2024/01/02 12:42:40;;;;;;;1.38;1.00;;;;;;;;;;6126855;23;20010;-79
2024/01/02 12:45:34;;;;;;;1.40;0.98;;;;;;;;;;6145986;23;20005;-80
2024/01/02 12:48:05;;;;;;;0.77;0.77;;;9.30;99.90;;;;;;6213944;23;20107;-79
2024/01/02 12:50:40;;;;;;;1.63;1.00;;;9.20;99.90;;;;;;6192446;23;20012;-81
2024/01/02 12:53:40;;;;;;;1.65;0.80;;;;;;;;;;6221309;23;20015;-81
2024/01/02 12:56:41;;;;;;;1.63;1.00;;;;;;;;;;6219668;23;20000;-81
2024/01/02 12:59:14;;;;;;;2.03;0.85;;;;;;;;;;6222194;23;20013;-80
2024/01/02 13:01:52;;;;;;;2.00;1.00;;;;;;;;;;6219311;23;20020;-80
2024/01/02 13:04:37;;;;;;;1.13;0.80;;;;;;;;;;6222427;23;20340;-81
2024/01/02 13:17:33;;;;;;;1.77;1.10;;;9.30;99.90;;;;;;6200899;23;20017;-83
2024/01/02 13:20:14;;;;;;;1.42;1.05;;;;;;;;;;6235595;23;20005;-81
2024/01/02 13:22:47;;;;;;;1.92;1.00;;;;;;;;;;6224055;23;20007;-80
2024/01/02 13:25:25;;;;;;;1.50;0.88;;;9.20;99.90;;;;;;6222577;23;20012;-80
2024/01/02 13:30:49;;;;;;;1.65;1.00;;;9.20;99.90;;;;;;6194078;23;20027;-81
2024/01/02 13:33:45;;;;;;;0.90;0.80;;;9.20;99.90;;;;;;6226243;23;20084;-81
2024/01/02 13:39:32;;;;;;;1.50;0.80;;;;;;;;;;6237033;23;20080;-81
2024/01/02 13:42:45;;;;;;;1.88;1.13;;;9.30;99.90;;;;;;6232402;23;20015;-81
2024/01/02 13:45:54;;;;;;;1.42;0.90;;;9.30;99.90;;;;;;6200457;23;20031;-80
2024/01/02 13:48:29;;;;;;;1.13;0.98;;;9.20;99.90;;;;;;6199172;23;19996;-80
2024/01/02 13:51:31;;;;;;;1.38;1.00;;;9.10;99.90;;;;;;6198338;23;20051;-81
2024/01/02 13:54:49;;;;;;;1.98;0.98;;;9.00;99.90;;;;;;6177268;23;20066;-80
2024/01/02 13:57:26;;;;;;;3.15;1.08;;;;;;;;;;6173599;23;20016;-80
2024/01/02 14:00:20;;;;;;;2.15;1.20;;;;;;;;;;6192602;23;20005;-80
2024/01/02 14:02:54;;;;;;;1.58;0.93;;;;;;;;;;6199698;23;20459;-80
2024/01/02 14:06:12;;;;;;;1.30;1.00;;;9.00;99.90;;;;;;6224533;23;20000;-80
2024/01/02 14:42:17;;;;;;;0.73;0.60;;;9.00;99.90;;;;;;6120409;23;20069;-81
2024/01/02 14:49:17;;;;;;;1.92;1.02;;;9.10;99.90;;;;;;6005775;23;20027;-82
2024/01/02 15:18:15;;;;;;;2.08;1.13;;;;;;;;;;6188035;23;20025;-81
2024/01/02 15:21:21;;;;;;;6.13;3.45;;;;;;;;;;6236075;23;20001;-83
2024/01/02 15:24:14;;;;;;;3.42;1.42;;;;;;;;;;6198331;23;20103;-82
2024/01/02 15:26:40;;;;;;;0.65;0.43;;;;;;;;;;6201618;23;20085;-82
2024/01/02 15:29:13;;;;;;;1.40;0.60;;;;;;;;;;6166787;23;20002;-82
2024/01/02 15:32:11;;;;;;;1.10;0.68;;;9.10;99.90;;;;;;6162612;23;20369;-81
2024/01/02 15:35:07;;;;;;;1.92;0.80;;;;;;;;;;6157972;23;20009;-81
2024/01/02 15:37:58;;;;;;;1.55;0.60;;;9.00;99.90;;;;;;6164524;23;20061;-79
2024/01/02 15:40:29;;;;;;;1.85;0.80;;;;;;;;;;6162840;23;20375;-80
2024/01/02 15:47:08;;;;;;;0.98;0.88;;;9.10;99.90;;;;;;6164275;23;20004;-81
2024/01/02 15:50:19;;;;;;;0.55;0.52;;;;;;;;;;6133976;23;20021;-81
2024/01/02 16:19:27;;;;;;;0.85;0.70;;;;;;;;;;5993734;23;20076;-81
2024/01/02 16:29:38;;;;;;;1.15;0.80;;;9.20;99.90;;;;;;5927556;24;20047;-82
2024/01/02 16:32:30;;;;;;;;;;;9.20;99.90;;;;;;5947640;24;20096;-81
2024/01/02 16:58:54;;;;;;;1.70;0.88;;;9.20;99.90;;;;;;6208181;23;20020;-81
2024/01/02 17:01:39;;;;;;;1.17;0.70;;;9.20;99.90;;;;;;6208596;23;20004;-81
2024/01/02 17:08:10;;;;;;;1.48;0.80;;;9.20;99.90;;;;;;6204220;23;20008;-79
2024/01/02 17:15:18;;;;;;;2.05;0.80;;;9.30;99.90;;;;;;6126313;23;20064;-81
2024/01/02 17:21:28;;;;;;;1.83;0.80;;;9.30;99.90;;;;;;6014996;23;20048;-81
2024/01/02 17:24:37;;;;;;;3.78;0.88;;;9.30;99.90;;;;;;5985719;23;20008;-80
2024/01/02 17:45:10;;;;;;;1.85;0.90;;;9.40;99.90;;;;;;5976167;23;20401;-81
2024/01/02 17:48:50;;;;;;;1.48;0.88;;;9.50;99.90;;;;;;5979929;23;20045;-81
2024/01/02 17:51:58;;;;;;;1.42;0.90;;;9.40;99.90;;;;;;6041882;23;20000;-81
2024/01/02 17:54:29;;;;;;;1.92;0.98;;;9.50;99.90;;;;;;5949379;23;20528;-80
2024/01/02 17:57:29;;;;;;;1.63;0.75;;;9.60;99.90;;;;;;6082984;23;20033;-81
2024/01/02 18:00:10;;;;;;;4.90;1.20;;;9.60;99.90;;;;;;6159942;23;20084;-81
2024/01/02 18:02:51;;;;;;;1.70;0.90;;;9.60;99.90;;;;;;6161706;23;20344;-81
2024/01/02 18:09:08;;;;;;;1.05;0.80;;;9.60;99.90;;;;;;6117979;23;20025;-80
2024/01/02 18:30:17;;;;;;;1.75;1.30;;;9.50;99.90;;;;;;6227706;23;20020;-80
2024/01/02 18:33:04;;;;;;;1.55;1.20;;;;;;;;;;6113307;23;20023;-81
2024/01/02 18:35:50;;;;;;;3.45;1.63;;;;;;;;;;6225278;23;20470;-81
2024/01/02 18:38:36;;;;;;;3.45;1.48;;;;;;;;;;6224683;23;20060;-81
2024/01/02 18:41:33;;;;;;;3.08;1.20;;;;;;;;;;6223253;23;20009;-81
2024/01/02 18:44:20;;;;;;;2.37;1.30;;;;;;;;;;6225355;23;20334;-81
2024/01/02 18:47:09;;;;;;;4.18;1.30;;;;;;;;;;6226037;23;20363;-84
2024/01/02 18:49:41;;;;;;;2.65;1.10;;;;;;;;;;6212011;23;20072;-81
2024/01/02 18:52:40;;;;;;;2.47;1.27;;;;;;;;;;6213801;23;19985;-81
2024/01/02 18:58:10;;;;;;;2.60;0.90;;;;;;;;;;6181753;23;20017;-82
2024/01/02 19:25:16;;;;;;;1.30;0.90;;;9.60;99.90;;;;;;6192300;23;20021;-86
2024/01/02 19:27:42;;;;;;;2.85;1.23;;;;;;;;;;6193927;23;20012;-88
2024/01/02 19:30:13;;;;;;;1.10;0.90;;;9.40;99.90;;;;;;6192335;23;20238;-89
2024/01/02 19:32:39;;;;;;;1.33;0.77;;;;;;;;;;6188831;23;20009;-87
2024/01/02 19:35:08;;;;;;;2.10;1.02;;;;;;;;;;6193148;23;19998;-89
2024/01/02 19:37:34;;;;;;;1.02;0.77;;;;;;;;;;6162191;23;20009;-86
2024/01/02 19:40:02;;;;;;;3.50;1.00;;;;;;;;;;6160703;23;19993;-87
2024/01/02 19:42:29;;;;;;;1.05;0.75;;;;;;;;;;6162532;23;20893;-87
2024/01/02 19:44:55;;;;;;;1.55;1.00;;;7.60;99.90;;;;;;6169203;23;20060;-85
2024/01/02 19:47:21;;;;;;;1.80;1.17;;;;;;;;;;6162435;23;20002;-88
2024/01/02 19:49:47;;;;;;;1.73;0.93;;;9.30;99.90;;;;;;6159794;23;20013;-88
2024/01/02 19:52:13;;;;;;;1.77;1.00;;;11.40;99.90;;;;;;6159042;23;20012;-87
2024/01/02 19:54:39;;;;;;;0.98;0.90;;;11.00;99.90;;;;;;6159506;23;20010;-86
2024/01/02 19:57:05;;;;;;;1.63;1.00;;;;;;;;;;6156669;23;20460;-87
2024/01/02 19:59:31;;;;;;;2.50;1.00;;;9.40;99.90;;;;;;6158756;23;20488;-87
2024/01/02 20:01:57;;;;;;;2.92;1.30;;;;;;;;;;6161542;23;20001;-86
2024/01/02 20:04:27;;;;;;;1.60;1.20;;;9.50;99.90;;;;;;6157773;23;20002;-86
2024/01/02 20:06:53;;;;;;;1.63;0.85;;;9.50;99.90;;;;;;6157542;23;20045;-87
2024/01/02 20:09:40;;;;;;;3.00;1.10;;;9.40;99.90;;;;;;6163081;23;20010;-89
2024/01/02 20:12:38;;;;;;;1.38;1.00;;;7.10;99.90;;;;;;6160257;23;20006;-87
2024/01/02 20:15:20;;;;;;;2.00;1.05;;;9.30;99.90;;;;;;6158127;23;20005;-86
2024/01/02 20:17:58;;;;;;;1.90;1.02;;;9.50;99.90;;;;;;6159099;23;20014;-87
2024/01/02 20:20:56;;;;;;;2.13;1.27;;;9.40;99.90;;;;;;6161713;23;20342;-89
2024/01/02 20:23:22;;;;;;;2.15;1.15;;;9.40;99.90;;;;;;6157650;23;20001;-85
2024/01/02 20:25:53;;;;;;;2.22;1.25;;;12.50;99.90;;;;;;6161355;23;20036;-88
2024/01/02 20:28:19;;;;;;;3.65;1.65;;;;;;;;;;6160509;23;20014;-88
2024/01/02 20:30:46;;;;;;;2.75;1.13;;;;;;;;;;6160543;23;20005;-87
2024/01/02 20:33:34;;;;;;;2.60;1.40;;;9.50;99.90;;;;;;6158845;23;20013;-89
2024/01/02 20:36:00;;;;;;;2.67;1.33;;;9.50;99.90;;;;;;6158329;23;20016;-90
2024/01/02 20:38:44;;;;;;;1.92;1.17;;;9.50;99.90;;;;;;6160119;23;20010;-88
2024/01/02 20:41:48;;;;;;;2.40;1.10;;;9.60;99.90;;;;;;6161817;23;20028;-87
2024/01/02 20:44:14;;;;;;;2.85;1.15;;;9.60;99.90;;;;;;6157277;23;20029;-89
2024/01/02 20:46:40;;;;;;;2.30;1.25;;;9.30;99.90;;;;;;6159711;23;20060;-89
2024/01/02 20:49:22;;;;;;;2.42;1.38;;;9.60;99.90;;;;;;6159140;23;20020;-89
2024/01/02 20:51:48;;;;;;;2.60;1.27;;;9.50;99.90;;;;;;6159171;23;20029;-89
2024/01/02 20:54:31;;;;;;;2.42;1.40;;;12.00;99.90;;;;;;6158513;23;20012;-87
2024/01/02 20:57:03;;;;;;;2.50;1.10;;;9.50;99.90;;;;;;6159714;23;20018;-86
2024/01/02 20:59:29;;;;;;;3.08;1.42;;;;;;;;;;6161249;23;20005;-87
2024/01/02 21:02:07;;;;;;;2.42;1.30;;;;;;;;;;6170133;23;19994;-85
2024/01/02 21:04:36;;;;;;;3.67;1.10;;;9.70;99.90;;;;;;6168688;23;20104;-85
2024/01/02 21:07:06;;;;;;;2.15;1.08;;;9.60;99.90;;;;;;6172207;23;19998;-84
2024/01/02 21:09:33;;;;;;;1.95;1.10;;;;;;;;;;6169244;23;20001;-88
2024/01/02 21:12:32;;;;;;;3.45;1.20;;;9.60;99.90;;;;;;6163874;23;19998;-88
2024/01/02 21:15:22;;;;;;;2.60;0.90;;;;;;;;;;6162554;23;20006;-86
2024/01/02 21:17:48;;;;;;;3.33;1.23;;;9.70;99.90;;;;;;6160248;23;20002;-87
2024/01/02 21:20:27;;;;;;;3.20;1.02;;;11.60;99.90;;;;;;6160269;23;20001;-87
2024/01/02 21:22:56;;;;;;;2.67;1.00;;;9.70;99.90;;;;;;6160336;23;20013;-88
2024/01/02 21:25:23;;;;;;;5.80;1.10;;;9.70;99.90;;;;;;6161678;23;20013;-85
2024/01/02 21:27:49;;;;;;;2.97;1.00;;;9.70;99.90;;;;;;6158798;23;20006;-85
2024/01/02 21:30:15;;;;;;;2.70;1.10;;;9.80;99.90;;;;;;6159626;23;20040;-84
2024/01/02 21:32:42;;;;;;;2.53;1.20;;;9.90;99.90;;;;;;6158047;23;20011;-86
2024/01/02 21:35:09;;;;;;;2.20;1.00;;;13.10;99.90;;;;;;6159070;23;20013;-86
2024/01/02 21:37:38;;;;;;;3.30;1.15;;;9.90;99.90;;;;;;6159399;23;20010;-87
2024/01/02 21:40:16;;;;;;;2.08;1.23;;;;;;;;;;6159830;23;20012;-86
2024/01/02 21:42:42;;;;;;;5.53;1.15;;;;;;;;;;6159413;23;20002;-85
2024/01/02 21:45:34;;;;;;;4.53;1.58;;;9.90;99.90;;;;;;6159091;23;20107;-88
2024/01/02 21:48:10;;;;;;;4.43;1.30;;;9.90;99.90;;;;;;6161208;23;20009;-86
2024/01/02 21:50:42;;;;;;;2.63;0.90;;;10.00;99.90;;;;;;6158004;23;20401;-87
2024/01/02 21:53:08;;;;;;;2.33;1.27;;;10.00;99.90;;;;;;6158281;23;20067;-87
2024/01/02 21:55:36;;;;;;;3.78;1.30;;;10.10;99.90;;;;;;6161976;23;20158;-87
2024/01/02 21:58:08;;;;;;;3.55;1.75;;;10.10;99.90;;;;;;6159182;23;20009;-87
2024/01/02 22:00:37;;;;;;;2.25;1.00;;;10.10;99.90;;;;;;6158190;23;20023;-87
2024/01/02 22:03:10;;;;;;;2.38;1.10;;;13.60;99.90;;;;;;6159409;23;20005;-87
2024/01/02 22:05:35;;;;;;;1.30;0.70;;;11.20;99.90;;;;;;6133799;23;20059;-88
2024/01/02 22:08:04;;;;;;;1.63;0.77;;;10.20;99.90;;;;;;6157849;23;20009;-88
2024/01/02 22:10:42;;;;;;;1.83;1.00;;;10.10;99.90;;;;;;6161581;23;20013;-87
2024/01/02 22:13:54;;;;;;;1.85;1.00;;;10.30;99.90;;;;;;6160750;23;20438;-87
2024/01/02 22:16:24;;;;;;;4.60;1.00;;;10.00;99.90;;;;;;6159835;23;20009;-85
2024/01/02 22:18:57;;;;;;;2.85;0.80;;;10.00;99.90;;;;;;6160868;23;20009;-88
2024/01/02 22:22:00;;;;;;;3.33;1.00;;;10.00;99.90;;;;;;6159856;23;20029;-86
2024/01/02 22:24:32;;;;;;;2.97;1.20;;;10.00;99.90;;;;;;6135258;23;20036;-85
2024/01/02 22:27:13;;;;;;;2.58;0.90;;;;;;;;;;6160389;23;20013;-85
2024/01/02 22:29:46;;;;;;;1.85;0.90;;;10.00;99.90;;;;;;6159742;23;20013;-87
2024/01/02 22:32:12;;;;;;;4.65;0.90;;;10.00;99.90;;;;;;6162029;23;20001;-87
2024/01/02 22:34:42;;;;;;;2.95;1.00;;;10.00;99.90;;;;;;6159550;23;20008;-86
2024/01/02 22:37:09;;;;;;;3.33;0.93;;;;;;;;;;6158964;23;20005;-89
2024/01/02 22:39:55;;;;;;;1.45;0.70;;;10.20;99.90;;;;;;6160876;23;20085;-87
2024/01/02 22:42:22;;;;;;;1.23;0.73;;;;;;;;;;6136972;23;20002;-88
2024/01/02 22:44:48;;;;;;;4.72;1.08;;;;;;;;;;6163157;23;20688;-85
2024/01/02 22:47:14;;;;;;;3.65;1.10;;;;;;;;;;6162173;23;20005;-86
2024/01/02 22:49:40;;;;;;;1.65;0.68;;;10.20;99.90;;;;;;6161323;23;20097;-85
2024/01/02 22:52:07;;;;;;;2.88;0.88;;;;;;;;;;6160453;23;20006;-88
2024/01/02 22:54:36;;;;;;;2.05;0.70;;;;;;;;;;6159293;23;20091;-89
2024/01/02 22:57:02;;;;;;;2.05;1.05;;;;;;;;;;6161676;23;20013;-88
2024/01/02 22:59:30;;;;;;;1.88;0.70;;;10.10;99.90;;;;;;6160173;23;20002;-87
2024/01/02 23:01:55;;;;;;;4.70;0.80;;;13.20;99.90;;;;;;6159165;23;20006;-88
2024/01/02 23:04:21;;;;;;;1.98;0.70;;;;;;;;;;6160716;23;20036;-87
2024/01/02 23:06:56;;;;;;;4.82;0.85;;;10.10;99.90;;;;;;6161217;23;20005;-86
2024/01/02 23:09:33;;;;;;;2.88;0.73;;;10.30;99.90;;;;;;6161051;23;19998;-89
2024/01/02 23:11:58;;;;;;;2.33;0.70;;;11.90;99.90;;;;;;6161301;23;20421;-87
2024/01/02 23:14:25;;;;;;;1.40;0.57;;;;;;;;;;6158990;23;20001;-86
2024/01/02 23:16:50;;;;;;;2.33;0.73;;;10.10;99.90;;;;;;6159874;23;20041;-85
2024/01/02 23:19:17;;;;;;;3.40;0.70;;;;;;;;;;6157098;23;20021;-85
2024/01/02 23:21:52;;;;;;;3.10;0.98;;;10.00;99.90;;;;;;6155140;23;20010;-86
2024/01/02 23:24:18;;;;;;;1.88;0.60;;;;;;;;;;6159466;23;20001;-85
2024/01/02 23:26:55;;;;;;;5.15;0.75;;;;;;;;;;6159567;23;20044;-87
2024/01/02 23:29:23;;;;;;;1.42;0.40;;;9.80;99.90;;;;;;6160710;23;20052;-87
2024/01/02 23:31:52;;;;;;;1.55;0.60;;;9.90;99.90;;;;;;6159302;23;19998;-89
2024/01/02 23:34:40;;;;;;;3.50;0.70;;;9.80;99.90;;;;;;6158263;23;20089;-87
2024/01/02 23:37:07;;;;;;;2.50;0.85;;;;;;;;;;6158928;23;20001;-86
2024/01/02 23:39:33;;;;;;;4.50;0.90;;;;;;;;;;6157877;23;20009;-87
2024/01/02 23:42:05;;;;;;;2.10;0.98;;;;;;;;;;6153859;23;20001;-86
2024/01/02 23:44:31;;;;;;;5.07;0.77;;;9.80;99.90;;;;;;6157724;23;20013;-86
2024/01/02 23:46:57;;;;;;;3.15;0.90;;;9.80;99.90;;;;;;6159516;23;20088;-87
2024/01/02 23:49:23;;;;;;;3.20;0.75;;;13.60;99.90;;;;;;6157862;23;20008;-87
2024/01/02 23:51:48;;;;;;;3.35;0.93;;;;;;;;;;6156401;23;20013;-85
2024/01/02 23:54:45;;;;;;;4.47;0.90;;;9.80;99.90;;;;;;6156050;23;20006;-85
2024/01/02 23:57:29;;;;;;;3.28;0.98;;;9.80;99.90;;;;;;6158089;23;20001;-85
2024/01/02 23:59:55;;;;;;;2.75;1.00;;;11.40;99.90;;;;;;6163133;23;20001;-87
